LiveATC.Net - Listen to live air traffic control over the Internet!

Find LiveATC Audio Streams


Airport/ARTCC Code

Frequency Search
(e.g., 124.400, 128.75)
Site-wide search
 


Browse LiveATC Feeds
Top 50 LiveATC Feeds
LiveATC Feed Map
Bad Weather Areas

LiveATC FAQ
Offer LiveATC feed
Contact LiveATC.net
Press Inquiries

LiveATC on iPhone
LiveATC on Android

Windows Phone
Windows 8/10

LiveATC Mobile
(Mobile browser)

ATC Audio Archives
Interesting Recordings

LiveATC Forums

Home Page
About LiveATC.net
Make a Donation
Terms of Use
Privacy Policy

Canadian Air Freqs

AIRMETs/SIGMETs

FAA Airport Status
Nat'l Airspace Status
Arrival Demand Charts


Server Software By:
Icecast.org
Liquidsoap

Select an area of interest:
U.S. Feeds: Class B Airports | Class C Airports | Class D/Other Airports | ARTCC (Centers)
International Feeds: Canada | Europe | Oceania | Asia | South America | North/Central America | Africa
Misc Feeds: HF Feeds
Search by ICAO/IATA airport code:   (e.g., kbos, kjfk, lax, eham, etc.)


Currently Available Live Feeds: 2436
Status Updated: Thu Feb 21 2019 14:47:01 UTC


NOTICE

Unauthorized use prohibited. See LiveATC.net Terms of Service

South America Airport Feeds

 

SABE Gnd/Twr/App (Archives)
Buenos Aires, Argentina

Feed Status: UP
Listen in your browser - HTML5 player(in browser, HTML5)
Click here to listen with your own player(launches your MP3 player)

SABE 211400Z 08012KT 050V120 CAVOK 29/21 Q1013 NOSIG

SABE Flight Activity (Flightaware)

Listeners: 15 out of 1291 total

Aerolineas Argentinas Ops: 131.950
Aerolineas Argentinas Ops: 131.100
Aeroparque Ground: 121.900
Aeroparque Tower: 120.600
Aeroparque Tower: 118.250
Aeroparque Tower: 128.850
Aeroparque Tower: 118.850
Aeroparque Tower: 129.300
Air to Air: 123.450
Baires: 125.900
Baires: 125.300
Baires: 124.900
Cordoba South: 126.500
Ezeiza Ground: 121.750
Ezeiza North: 133.350
Ezeiza North: 124.500
Ezeiza North: 125.600
Ezeiza North: 135.500
Ezeiza South: 124.100
Ezeiza South: 125.200
LAN Ops: 131.700

Powered by aeropuertotucuman.blogspot.com

SAEZ Del/Gnd/Twr/App/Radar/Misc
Buenos Aires, Argentina

Feed Status: DOWN
Offline since: 2019-02-21 01:53:03 UTC

SAEZ 211400Z 05015KT CAVOK 29/21 Q1013 NOSIG

Air to Air: 123.450
Baires TMA Radar: 125.800
Baires TMA Radar: 125.300
Baires TMA Radar: 125.900
Baires TMA Radar: 124.900
Baires TMA Radar: 133.350
Canuelas (CNA) CTAF: 123.000
Emergency/Guard: 121.500
Ezeiza Clearance Delivery: 127.100
Ezeiza CTA Radar North: 134.500
Ezeiza CTA Radar North: 135.500
Ezeiza CTA Radar North: 125.600
Ezeiza CTA Radar South: 125.200
Ezeiza Ground: 126.950
Ezeiza Ground: 121.750
Ezeiza Tower: 118.600
Ezeiza Tower: 118.050
Ezeiza Tower: 120.450
Moron (SADM) Tower: 119.900
Moron (SADM) Tower: 118.500
UNICOM: 123.500

"Only for educational purposes - www.prevacc.org

SANT Tower/Apps
Tucuman, Argentina

Feed Status: DOWN
Offline since: 2019-02-21 00:43:02 UTC

SANT 211400Z 06005KT 350V130 CAVOK 31/21 Q1009

Aeroclub Tucuman: 119.000
Aerolineas Argentinas SOC Salta: 131.100
Aerolineas Argentinas SOC Tucuman: 131.950
Air To Air: 123.450
Andes Lineas Aereas: 132.000
Campo Arenal: 130.950
Catamarca Tower: 118.150
Copa Airlines: 129.400
Cordoba Centro Norte: 125.100
Cordoba Centro Sur: 126.500
Emergency/Guard: 121.500
Lan Argentina Operaciones: 131.700
Lan Peru: 131.300
Salta Tower: 128.850
Santiago del Estero Tower: 118.700
Taca Peru: 126.450
Termas de Rio Hondo: 118.200
Termas de Rio Hondo: 119.850
Tucuman Ground: 121.750
Tucuman Ground: 121.750
Tucuman Tower: 118.350
Tucuman Tower: 119.500

Powered by:

aeropuertotucuman.blogspot.com

SASA Twr/App (Archives)
Salta, Argentina

Feed Status: UP
Listen in your browser - HTML5 player(in browser, HTML5)
Click here to listen with your own player(launches your MP3 player)

SASA 211400Z 09004KT 9999 FEW022 26/19 Q1016

SASA Flight Activity (Flightaware)

Listeners: 1 out of 1291 total

Cordoba Approach (North): 125.100
Salta Approach: 124.600
Salta Tower: 126.000
Salta Tower/Ground: 128.850

SAZS Tower/Approach (Archives)
Rio Negro, Argentina

Feed Status: UP
Listen in your browser - HTML5 player(in browser, HTML5)
Click here to listen with your own player(launches your MP3 player)

SAZS 211400Z 29017KT 9999 SCT045 SCT100 16/05 Q1013

SAZS Flight Activity (Flightaware)

Listeners: 0 out of 1291 total

Bariloche Twr/App: 119.100
Bariloche Twr/App (Aux): 118.650
Chapelco Tower/Approach: 119.600
Comodoro Rivadavia Control: 125.500
Emergency: 121.500
Ezeiza South: 125.200
Puerto Mont Radar North: 121.300
Puerto Mont Radar South: 128.300
Puerto Mont Radio: 126.900


Feed courtesy of: Juan Jose Porta - Bariloche

SBBH ACC-BS 127.0 (Archives)
Belo Horizonte, Brazil

Feed Status: UP
Listen in your browser - HTML5 player(in browser, HTML5)
Click here to listen with your own player(launches your MP3 player)

SBBH 211300Z 17005KT 6000 -RA SCT030 SCT080 20/18 Q1021 RETS

SBBH Flight Activity (Flightaware)

Listeners: 7 out of 1291 total

Brasilia ACC-BS (Air Control Center): 127.000

SBBH ACC-BS 127.3 (Archives)
Belo Horizonte, Brazil

Feed Status: UP
Listen in your browser - HTML5 player(in browser, HTML5)
Click here to listen with your own player(launches your MP3 player)

SBBH 211300Z 17005KT 6000 -RA SCT030 SCT080 20/18 Q1021 RETS

SBBH Flight Activity (Flightaware)

Listeners: 0 out of 1291 total

Brasilia ACC-BS (Air Control Center): 127.300

SBBH App (Sector 1) (Archives)
Belo Horizonte, Brazil

Feed Status: UP
Listen in your browser - HTML5 player(in browser, HTML5)
Click here to listen with your own player(launches your MP3 player)

SBBH 211300Z 17005KT 6000 -RA SCT030 SCT080 20/18 Q1021 RETS

SBBH Flight Activity (Flightaware)

Listeners: 0 out of 1291 total

Belo Horizonte Approach (Sector 1): 129.100

SBBH App (Sector 2) (Archives)
Belo Horizonte, Brazil

Feed Status: UP
Listen in your browser - HTML5 player(in browser, HTML5)
Click here to listen with your own player(launches your MP3 player)

SBBH 211300Z 17005KT 6000 -RA SCT030 SCT080 20/18 Q1021 RETS

SBBH Flight Activity (Flightaware)

Listeners: 0 out of 1291 total

Belo Horizonte Approach (Sector 2): 129.400

SBBH App/Dep (Archives)
Belo Horizonte, Brazil

Feed Status: UP
Listen in your browser - HTML5 player(in browser, HTML5)
Click here to listen with your own player(launches your MP3 player)

SBBH 211300Z 17005KT 6000 -RA SCT030 SCT080 20/18 Q1021 RETS

SBBH Flight Activity (Flightaware)

Listeners: 0 out of 1291 total

Belo Horizonte Approach: 128.550

SBBI Gnd/Twr (Archives)
Curitiba, Brazil

Feed Status: UP
Listen in your browser - HTML5 player(in browser, HTML5)
Click here to listen with your own player(launches your MP3 player)

SBBI 211400Z 36004KT 9999 FEW011 BKN015 BKN020 22/18 Q1020

SBBI Flight Activity (Flightaware)

Listeners: 2 out of 1291 total

Bacacheri Ground: 121.800
Bacacheri Tower: 118.900

SBBV Approach (Archives)
Boa Vista, Brazil

Feed Status: UP
Listen in your browser - HTML5 player(in browser, HTML5)
Click here to listen with your own player(launches your MP3 player)

SBBV 211400Z 08016KT 9999 BKN035 SCT090 29/20 Q1015

SBBV Flight Activity (Flightaware)

Listeners: 1 out of 1291 total

Boa Vista Approach: 120.100

SBBV Tower (Archives)
Boa Vista, Brazil

Feed Status: UP
Listen in your browser - HTML5 player(in browser, HTML5)
Click here to listen with your own player(launches your MP3 player)

SBBV 211400Z 08016KT 9999 BKN035 SCT090 29/20 Q1015

SBBV Flight Activity (Flightaware)

Listeners: 3 out of 1291 total

Boa Vista Tower: 118.100

SBCT Twr/App (Archives)
Curitiba, Brazil

Feed Status: UP
Listen in your browser - HTML5 player(in browser, HTML5)
Click here to listen with your own player(launches your MP3 player)

SBCT 211400Z 02003KT 9999 BKN013 BKN025 22/18 Q1020

SBCT Flight Activity (Flightaware)

Listeners: 4 out of 1291 total

Curitiba Approach: 119.950
Curitiba Tower: 118.150

SBDN Twr/App (Archives)
Presidente Prudente/Sao Paulo, Brazil

Feed Status: UP
Listen in your browser - HTML5 player(in browser, HTML5)
Click here to listen with your own player(launches your MP3 player)

SBDN 211400Z 00000KT 9999 BKN020 26/20 Q1015

SBDN Flight Activity (Flightaware)

Listeners: 1 out of 1291 total

Air-to-Air: 123.450
Curitiba Sector 13: 133.595
Prudente Approach: 118.450
Prudente Tower: 125.450

SBEG Tower/App (Archives)
Manaus, Brazil

Feed Status: UP
Listen in your browser - HTML5 player(in browser, HTML5)
Click here to listen with your own player(launches your MP3 player)

SBEG 211400Z 15005KT 9999 BKN009 26/25 Q1014

SBEG Flight Activity (Flightaware)

Listeners: 1 out of 1291 total

Emergency/Guard: 121.500
Manaus Approach : 119.250
Manaus Approach: 120.400
Manaus Approach: 119.700
Manaus Tower: 118.300

SBFI Twr/App/Ctr/Misc (Archives)
Foz do Iguacu, Brazil

Feed Status: UP
Listen in your browser - HTML5 player(in browser, HTML5)
Click here to listen with your own player(launches your MP3 player)

SBFI 211400Z 04007KT CAVOK 28/20 Q1014

SBFI Flight Activity (Flightaware)

Listeners: 3 out of 1291 total

Asuncion Center (Paraguay): 126.900
Asuncion Center (Paraguay): 128.400
Curitiba Center: 127.200
Curitiba Center: 125.800
Emergency/Guard: 121.500
Foz do Iguacu Approach/Departure: 120.300
Foz do Iguacu Approach/Departure: 119.150
Foz do Iguacu Tower: 118.800
Guarani Approach (Paraguay): 119.300
Puerto Iguazu - Cataratas Tower (Argentina) : 120.700
Resistencia Center (Argentina): 124.300
UNICOM: 123.450

SBFZ Twr/App/Center
Fortaleza, Brazil

Feed Status: DOWN
Offline since: 2019-02-12 22:44:02 UTC

SBFZ 211400Z 18003KT 140V240 9999 SCT020 FEW025TCU BKN100 27/24 Q1013

ACC-RE (Fortaleza Sector): 125.150
ACC-RE (Fortaleza Sector): 126.350
ACC-RE (Fortaleza Sector): 135.250
Fortaleza Approach: 133.000
Fortaleza Tower: 129.000

SBGO Gnd/Twr/App (Archives)
Goiania, Brazil

Feed Status: UP
Listen in your browser - HTML5 player(in browser, HTML5)
Click here to listen with your own player(launches your MP3 player)

SBGO 211400Z 31003KT 9999 FEW020 25/21 Q1018

SBGO Flight Activity (Flightaware)

Listeners: 2 out of 1291 total

Anapolis Approach: 119.150
Anapolis Approach: 120.550
Anapolis Approach: 133.000
Anapolis Approach: 129.450
Emergency/Guard: 121.500
Goiania Ground: 121.700
Goiania Tower: 118.700
Goiania Tower: 121.050

SBGR Twr/App/ACC
Sao Paulo, Brazil

Feed Status: DOWN
Offline since: 2019-02-17 22:31:03 UTC

SBGR 211415Z 07005KT 8000 2500E RA BKN015 25/20 Q1019

Brasilia Center: 126.150
Brasilia Center: 134.000
Curitiba Center: 126.500
Guarulhos Tower: 135.200
Marte Tower (SBMT): 118.700
Sao Paulo Departure: 120.450
Sao Paulo Final Approach (Guarulhos): 129.750

Sponsored by: aerocus.com

SBJP Twr/Control/Airlines (Archives)
Joao Pessoa, Brazil

Feed Status: UP
Listen in your browser - HTML5 player(in browser, HTML5)
Click here to listen with your own player(launches your MP3 player)

SBJP 211400Z 06007KT 030V090 9999 BKN030 BKN070 30/23 Q1014

SBJP Flight Activity (Flightaware)

Listeners: 1 out of 1291 total

AZUL: 130.900
GOL: 131.225
Joao Pessoa Tower: 118.300
Recife Control: 119.500
TAM: 130.500

SBJU Tower/Center (Archives)
Juazeiro do Norte, Brazil

Feed Status: UP
Listen in your browser - HTML5 player(in browser, HTML5)
Click here to listen with your own player(launches your MP3 player)

SBJU 211400Z 05006KT 9999 BKN020 30/22 Q1017

SBJU Flight Activity (Flightaware)

Listeners: 3 out of 1291 total

Pilot-to-Pilot: 123.450
Radio Juazeiro: 131.750
Recife Center: 135.250
Recife Center: 125.150

Sponsored by:

SBLO Twr/App/Center (Archives)
Londrina, Brazil

Feed Status: UP
Listen in your browser - HTML5 player(in browser, HTML5)
Click here to listen with your own player(launches your MP3 player)

SBLO 211400Z 10004KT 9999 BKN018 BKN090 26/21 Q1017

SBLO Flight Activity (Flightaware)

Listeners: 1 out of 1291 total

Curitiba Center: 128.350
Curitiba Center: 135.100
Curitiba Center: 125.800
Curitiba Center: 126.950
Emergency/Guard: 121.500
Londrina Approach: 129.700
Londrina Tower: 118.400
UNICOM: 123.450

TMA Londrina Blog

SBMG Twr/App/Misc (Archives)
Maringa, Brazil

Feed Status: UP
Listen in your browser - HTML5 player(in browser, HTML5)
Click here to listen with your own player(launches your MP3 player)

SBMG 211300Z 02007KT 340V070 9999 BKN025 27/21 Q1015

SBMG Flight Activity (Flightaware)

Listeners: 2 out of 1291 total

Air to Air: 123.450
Londrina Approach: 129.700
Maringa Tower: 118.750

SBMK RDO/Center (Archives)
Montes Claros, Brazil

Feed Status: UP
Listen in your browser - HTML5 player(in browser, HTML5)
Click here to listen with your own player(launches your MP3 player)

SBMK Flight Activity (Flightaware)

Listeners: 0 out of 1291 total

Brasilia Center (Sector 15): 127.300
Montes Claros RDO: 131.700

SBMQ Tower/App/Center (Archives)
Macapa, Brazil

Feed Status: UP
Listen in your browser - HTML5 player(in browser, HTML5)
Click here to listen with your own player(launches your MP3 player)

SBMQ 211400Z 33008KT 9999 BKN017 BKN080 30/25 Q1014

SBMQ Flight Activity (Flightaware)

Listeners: 1 out of 1291 total

Amazonico Center: 123.950
Amazonico Center: 128.000
Macapa Approach: 119.000
Macapa Tower: 118.000

SBNF Tower (Archives)
Navegantes, Brazil

Feed Status: UP
Listen in your browser - HTML5 player(in browser, HTML5)
Click here to listen with your own player(launches your MP3 player)

SBNF 211400Z 12005KT 9999 FEW023 FEW025TCU 27/23 Q1015

SBNF Flight Activity (Flightaware)

Listeners: 0 out of 1291 total

Navegantes Tower: 118.200

SBPA Gnd/Twr/App (Archives)
Porto Alegre, Brazil

Feed Status: UP
Listen in your browser - HTML5 player(in browser, HTML5)
Click here to listen with your own player(launches your MP3 player)

SBPA 211400Z 22003KT 150V290 CAVOK 29/21 Q1016

SBPA Flight Activity (Flightaware)

Listeners: 14 out of 1291 total

BACO (Canoas) Ground: 121.700
BACO (Canoas) Tower: 122.800
BACO (Canoas) Tower: 118.500
Emergency/Guard: 121.500
Porto Alegre Approach Sector 2: 119.000
Porto Alegre Approach Sector 1: 120.100
Porto Alegre Approach Sector 3: 120.550
Porto Alegre Approach Sector 4: 128.900
Porto Alegre Center: 126.750
Porto Alegre Center: 127.400
Porto Alegre Center: 135.850
Porto Alegre Center: 128.450
Salgado Filho Ground: 121.900
Salgado Filho Tower: 118.100

NOTE: Feed site maintenance Nov 13-30, 2016

SBPL RDO (Archives)
Petrolina, Brazil

Feed Status: UP
Listen in your browser - HTML5 player(in browser, HTML5)
Click here to listen with your own player(launches your MP3 player)

SBPL 211400Z 16008KT 9999 SCT025 31/20 Q1015

SBPL Flight Activity (Flightaware)

Listeners: 4 out of 1291 total

Petrolina RDO: 125.700

Sponsored by PNZSpotter

SBQV AFIS/App
Vitoria da Conquista, Brazil

Feed Status: DOWN
Offline since: 2019-02-21 14:23:03 UTC

SBQV 211400Z 14011KT 9999 FEW040 29/17 Q1019

Conquista AFIS: 130.300
Despacho Azul: 131.875
Despacho Passaredo: 132.000

SBRF App 129.60 (Archives)
Recife, Brazil

Feed Status: UP
Listen in your browser - HTML5 player(in browser, HTML5)
Click here to listen with your own player(launches your MP3 player)

SBRF 211400Z 09008KT 060V150 9999 SCT023 FEW025TCU 30/23 Q1013

SBRF Flight Activity (Flightaware)

Listeners: 9 out of 1291 total

Recife Approach: 129.600

SBRF Ground
Recife, Brazil

Feed Status: DOWN
Offline since: 2019-02-20 23:58:03 UTC

SBRF 211400Z 09008KT 060V150 9999 SCT023 FEW025TCU 30/23 Q1013

Recife Ground: 121.850

SBRF Recife ACC (Archives)
Recife, Brazil

Feed Status: UP
Listen in your browser - HTML5 player(in browser, HTML5)
Click here to listen with your own player(launches your MP3 player)

SBRF 211400Z 09008KT 060V150 9999 SCT023 FEW025TCU 30/23 Q1013

SBRF Flight Activity (Flightaware)

Listeners: 2 out of 1291 total

Recife Center: 128.700
Recife Center: 133.650
Recife Center: 134.800

SBRF Tower (Archives)
Recife, Brazil

Feed Status: UP
Listen in your browser - HTML5 player(in browser, HTML5)
Click here to listen with your own player(launches your MP3 player)

SBRF 211400Z 09008KT 060V150 9999 SCT023 FEW025TCU 30/23 Q1013

SBRF Flight Activity (Flightaware)

Listeners: 3 out of 1291 total

Recife Tower: 125.250
Recife Tower: 118.350
Recife Tower: 118.900

SBRP Tower/Center
Ribeirao Preto, Brazil

Feed Status: DOWN
Offline since: 2019-02-21 14:20:03 UTC

SBRP 211400Z 12005KT 5000 -RA BR SCT004 BKN040 OVC070 22/21 Q10 17

Leite Lopes Tower: 118.000
Pirassununga Center (North): 119.550

SBSN Twr/App/ACC
Santarem, Brazil

Feed Status: DOWN
Offline since: 2019-02-21 12:42:03 UTC

SBSN 211400Z 06006KT 9999 SCT017 FEW020TCU BKN100 28/26 Q1014

Brasilia Center/ACC: 123.650
Brasilia Center/ACC: 125.050
Santarem Approach: 119.300
Santarem Tower: 118.100

SBTE Twr/App (Archives)
Teresina, Brazil

Feed Status: UP
Listen in your browser - HTML5 player(in browser, HTML5)
Click here to listen with your own player(launches your MP3 player)

SBTE 211400Z 31003KT 9999 BKN017 30/25 Q1013

SBTE Flight Activity (Flightaware)

Listeners: 1 out of 1291 total

Teresina Approach: 119.600
Teresina Tower: 118.800

SBRE Recife ACC (Archives)
Paulo Afonso, Brazil

Feed Status: UP
Listen in your browser - HTML5 player(in browser, HTML5)
Click here to listen with your own player(launches your MP3 player)

SBRE Flight Activity (Flightaware)

Listeners: 2 out of 1291 total

Recife Center (ACC): 125.400
Recife Center (ACC): 125.450
Recife Center (ACC): 126.850
Recife Center (ACC): 133.650
Recife Center (ACC): 134.500
Recife Center (ACC): 134.900

SBUF AFIS/Center (Archives)
Paulo Afonso, Brazil

Feed Status: UP
Listen in your browser - HTML5 player(in browser, HTML5)
Click here to listen with your own player(launches your MP3 player)

SBUF 211400Z 11009KT 9999 SCT022 33/17 Q1014

SBUF Flight Activity (Flightaware)

Listeners: 2 out of 1291 total

Paulo Afonso Radio: 125.850
Recife Center: 133.650
Recife Center: 134.500
Recife Center: 125.450

SBVT Center/Misc (Archives)
Vitoria, Brazil

Feed Status: UP
Listen in your browser - HTML5 player(in browser, HTML5)
Click here to listen with your own player(launches your MP3 player)

SBVT 211400Z 03006KT 9999 FEW030 33/25 Q1014

SBVT Flight Activity (Flightaware)

Listeners: 1 out of 1291 total

AZUL Coordination: 130.900
Brasilia Center (Sector S-10): 126.750
Brasilia Center (Sector S-10): 127.300
CHAT Coordination: 123.400
Curitiba Center (Sector S-11): 133.600
Curitiba Center (Sector S-11): 133.400
Emergency/Guard: 121.500
GOL Coordination: 131.225
LIDER Coordination: 130.400
Recife Center (Sector S-14): 124.250
Recife Center (Sector S-14): 126.550
Recife Center (Sector S-15): 134.750
Recife Center (Sector S-15): 126.550
TAM Coordination: 130.500
TRIP Coordination: 131.375

Visit Vitoria Airport Web Site

SBVT Gnd/Twr/App (Archives)
Vitoria, Brazil

Feed Status: UP
Listen in your browser - HTML5 player(in browser, HTML5)
Click here to listen with your own player(launches your MP3 player)

SBVT 211400Z 03006KT 9999 FEW030 33/25 Q1014

SBVT Flight Activity (Flightaware)

Listeners: 2 out of 1291 total

SBVT Approach: 119.850
SBVT Ground: 121.950
SBVT Tower: 118.100

Visit Vitoria Airport Web Site

SCEL Gnd/Twr/Radar (Archives)
Santiago, Chile

Feed Status: UP
Listen in your browser - HTML5 player(in browser, HTML5)
Click here to listen with your own player(launches your MP3 player)

SCEL 211400Z 15008KT 8000 NSC 20/15 Q1016 NOSIG

SCEL Flight Activity (Flightaware)

Listeners: 3 out of 1291 total

Santiago Authorizations: 121.700
Santiago Control (Lat 3323S North): 128.100
Santiago Control (Lat 3323S South): 126.300
Santiago Ground (Primary): 122.200
Santiago Ground (Secondary): 122.500
Santiago Radar (Arrival, Primary): 129.700
Santiago Radar (Arrival, Secondary): 119.700
Santiago Radar (Arrival, Secondary): 123.800
Santiago Radar (Departure, Primary): 121.100
Santiago Radar (Departure, Secondary): 123.800
Santiago Radar (Information, Primary): 122.400
Santiago Radar (Information, Secondary): 120.800
Santiago Radar (Information, Secondary): 123.800
Santiago Tower (Primary): 118.100
Santiago Tower (Secondary): 118.350
SCTB Tobalaba Tower: 118.700

SCJO Gnd/Twr (Archives)
Osorno, Chile

Feed Status: UP
Listen in your browser - HTML5 player(in browser, HTML5)
Click here to listen with your own player(launches your MP3 player)

SCJO 211400Z 17005KT 9999 OVC010 13/11 Q1015

SCJO Flight Activity (Flightaware)

Listeners: 0 out of 1291 total

Osorno Ground: 121.700
Osorno Tower: 118.900

Sponsored by: Serticom

SEGU App/Dep (Archives)
Guayaquil, Ecuador

Feed Status: UP
Listen in your browser - HTML5 player(in browser, HTML5)
Click here to listen with your own player(launches your MP3 player)

SEGU 211400Z 20002KT 9999 FEW020 BKN030 BKN100 27/25 Q1011 NOSIG RMK A2985

SEGU Flight Activity (Flightaware)

Listeners: 0 out of 1291 total

Guayaquil Approach: 120.700

SEGU Gnd/Twr (Archives)
Guayaquil, Ecuador

Feed Status: UP
Listen in your browser - HTML5 player(in browser, HTML5)
Click here to listen with your own player(launches your MP3 player)

SEGU 211400Z 20002KT 9999 FEW020 BKN030 BKN100 27/25 Q1011 NOSIG RMK A2985

SEGU Flight Activity (Flightaware)

Listeners: 0 out of 1291 total

Guayaquil Ground: 121.900
Guayaquil Tower: 118.300

SEGU Gnd/Twr/App (Archives)
Guayaquil, Ecuador

Feed Status: UP
Listen in your browser - HTML5 player(in browser, HTML5)
Click here to listen with your own player(launches your MP3 player)

SEGU 211400Z 20002KT 9999 FEW020 BKN030 BKN100 27/25 Q1011 NOSIG RMK A2985

SEGU Flight Activity (Flightaware)

Listeners: 1 out of 1291 total

Guayaquil Approach: 120.700
Guayaquil Ground: 121.900
Guayaquil Tower: 118.300

SEGU Guayaquil Center (Archives)
Guayaquil, Ecuador

Feed Status: UP
Listen in your browser - HTML5 player(in browser, HTML5)
Click here to listen with your own player(launches your MP3 player)

SEGU 211400Z 20002KT 9999 FEW020 BKN030 BKN100 27/25 Q1011 NOSIG RMK A2985

SEGU Flight Activity (Flightaware)

Listeners: 0 out of 1291 total

Guayaquil Center: 127.950
Guayaquil Center: 128.300

SEQM ATIS (Archives)
Quito, Ecuador

Feed Status: UP
Listen in your browser - HTML5 player(in browser, HTML5)
Click here to listen with your own player(launches your MP3 player)

SEQM 211400Z 31003KT 9999 FEW023 BKN080 16/13 Q1027 NOSIG RMK A3035

SEQM Flight Activity (Flightaware)

Listeners: 0 out of 1291 total

Quito ATIS: 118.700

SEQM Gnd/Twr/App (Archives)
Quito, Ecuador

Feed Status: UP
Listen in your browser - HTML5 player(in browser, HTML5)
Click here to listen with your own player(launches your MP3 player)

SEQM 211400Z 31003KT 9999 FEW023 BKN080 16/13 Q1027 NOSIG RMK A3035

SEQM Flight Activity (Flightaware)

Listeners: 1 out of 1291 total

Quito Approach/Departure: 119.700
Quito Approach/Departure: 121.200
Quito Ground: 121.900
Quito Tower: 118.100
Quito Tower (Secondary): 118.350

SEQM Tower (Archives)
Quito, Ecuador

Feed Status: UP
Listen in your browser - HTML5 player(in browser, HTML5)
Click here to listen with your own player(launches your MP3 player)

SEQM 211400Z 31003KT 9999 FEW023 BKN080 16/13 Q1027 NOSIG RMK A3035

SEQM Flight Activity (Flightaware)

Listeners: 0 out of 1291 total

Quito Tower: 118.100
Quito Tower (Secondary): 118.350

SGAS Gnd/Twr/App/Center (Archives)
Asuncion, Paraguay

Feed Status: UP
Listen in your browser - HTML5 player(in browser, HTML5)
Click here to listen with your own player(launches your MP3 player)

SGAS 211400Z 04006KT CAVOK 31/21 Q1012

SGAS Flight Activity (Flightaware)

Listeners: 2 out of 1291 total

Asuncion Approach: 119.700
Asuncion Control: 126.900
Asuncion Ground: 121.900
Asuncion Tower: 118.100

SKBO Del/Gnd/Twr/App
Bogota, Colombia

Feed Status: DOWN
Offline since: 2019-02-17 23:33:02 UTC

SKBO 211400Z 13010KT 9999 FEW018 18/07 A3037

Bogota Approach: 119.500
Bogota Clearance Delivery: 121.600
Bogota Departure (North): 121.300
Bogota Departure (South): 119.650
Bogota Ground (North): 121.800
Bogota Ground (South): 122.750
Bogota Information: 126.900
Bogota Tower (North): 118.100
Bogota Tower (South): 118.250
Guaymaral Ground: 121.700
Guaymaral Tower: 118.800

SKBQ Approach (Archives)
Barranquilla, Colombia

Feed Status: UP
Listen in your browser - HTML5 player(in browser, HTML5)
Click here to listen with your own player(launches your MP3 player)

SKBQ 211400Z 02009KT CAVOK 28/22 A2988

SKBQ Flight Activity (Flightaware)

Listeners: 0 out of 1291 total

Barranquilla Approach/Departure: 119.100

SKBQ Gnd/Twr (Archives)
Barranquilla, Colombia

Feed Status: UP
Listen in your browser - HTML5 player(in browser, HTML5)
Click here to listen with your own player(launches your MP3 player)

SKBQ 211400Z 02009KT CAVOK 28/22 A2988

SKBQ Flight Activity (Flightaware)

Listeners: 1 out of 1291 total

Barranquilla Ground: 121.900
Barranquilla Tower: 118.450
Barranquilla Tower: 118.100

SPJC Approach (Archives)
Lima, Peru

Feed Status: UP
Listen in your browser - HTML5 player(in browser, HTML5)
Click here to listen with your own player(launches your MP3 player)

SPJC 211400Z VRB03KT CAVOK 28/20 Q1011 NOSIG RMK PP000

SPJC Flight Activity (Flightaware)

Listeners: 1 out of 1291 total

Lima Approach: 119.700

SPJC Ground (Archives)
Lima, Peru

Feed Status: UP
Listen in your browser - HTML5 player(in browser, HTML5)
Click here to listen with your own player(launches your MP3 player)

SPJC 211400Z VRB03KT CAVOK 28/20 Q1011 NOSIG RMK PP000

SPJC Flight Activity (Flightaware)

Listeners: 1 out of 1291 total

Lima Ground: 121.900

SPJC Tower (Archives)
Lima, Peru

Feed Status: UP
Listen in your browser - HTML5 player(in browser, HTML5)
Click here to listen with your own player(launches your MP3 player)

SPJC 211400Z VRB03KT CAVOK 28/20 Q1011 NOSIG RMK PP000

SPJC Flight Activity (Flightaware)

Listeners: 0 out of 1291 total

Lima Tower: 118.100

SSBL Air to Air (Archives)
Blumenau, Brazil

Feed Status: UP
Listen in your browser - HTML5 player(in browser, HTML5)
Click here to listen with your own player(launches your MP3 player)

METAR NOT AVAILABLE

SSBL Flight Activity (Flightaware)

Listeners: 0 out of 1291 total

Air to Air: 123.450

SUMU Twr/App (Archives)
Montevideo, Uruguay

Feed Status: UP
Listen in your browser - HTML5 player(in browser, HTML5)
Click here to listen with your own player(launches your MP3 player)

SUMU 211400Z 11012KT CAVOK 28/20 Q1014 NOSIG

SUMU Flight Activity (Flightaware)

Listeners: 0 out of 1291 total

SUMU Approach: 119.200
SUMU Tower: 118.100

Sponsored by Aeroclub Aerosur - Escuela de Vuelo

SUMU Twr/App/Radar (Archives)
Montevideo, Uruguay

Feed Status: UP
Listen in your browser - HTML5 player(in browser, HTML5)
Click here to listen with your own player(launches your MP3 player)

SUMU 211400Z 11012KT CAVOK 28/20 Q1014 NOSIG

SUMU Flight Activity (Flightaware)

Listeners: 0 out of 1291 total

SUMU Approach: 120.200
SUMU Approach: 119.200
SUMU Info: 121.800
SUMU Informacion: 121.800
SUMU Radar Control: 128.500
SUMU Radar Control: 126.300
SUMU Radar Control: 128.000
SUMU Tower: 118.100

Feed provided by:

Volemos.com.uy

Aviación Uruguaya - Volemos.com.uy

SUPU/SUPC Misc (Archives)
Paysandu, Uruguay

Feed Status: UP
Listen in your browser - HTML5 player(in browser, HTML5)
Click here to listen with your own player(launches your MP3 player)

SUPU 040900Z 10005KT 9999 FEW020TCU BKN070 FEW200 23/23 Q1010

SUPU Flight Activity (Flightaware)

Listeners: 0 out of 1291 total

Chalkling Tower: 118.700
Paysandu Tower: 118.200

Courtesy of: Aeroclub Paysandu

SVZM FIR #1
Maiquetia, Venezuela

Feed Status: DOWN
Offline since: 2019-02-20 23:41:02 UTC

SVMI 211400Z 09003KT 9999 FEW016 26/20 Q1013

Maiquetia Center (North/Centra/Coastal): 128.500
Maiquetia Center (South/Central): 127.950
Maiquetia Center (Southeast): 128.700

SVZM FIR #2
Maiquetia, Venezuela

Feed Status: DOWN
Offline since: 2019-02-20 23:41:02 UTC

SVMI 211400Z 09003KT 9999 FEW016 26/20 Q1013

Maiquetia Center (Northeast): 125.200
Maiquetia Center (Northeast): 126.600
Maiquetia Center (Southeast): 126.000

SVPR Twr/App/FIR (Archives)
Ciudad Guayana, Venezuela

Feed Status: UP
Listen in your browser - HTML5 player(in browser, HTML5)
Click here to listen with your own player(launches your MP3 player)

SVPR Flight Activity (Flightaware)

Listeners: 0 out of 1291 total

Emergency/Guard: 121.500
FIR 6: 126.000
Guayana Approach (Primary): 119.500
Guayana Approach (Secondary): 120.300
Guayana Tower (Primary): 118.000
Guayana Tower (Secondary): 123.500
SMC: 121.900

SVVA Gnd/Twr/App (Archives)
Valencia, Venezuela

Feed Status: UP
Listen in your browser - HTML5 player(in browser, HTML5)
Click here to listen with your own player(launches your MP3 player)

SVVA 171503Z ///// 9999 FEW020 29/20 Q1018

SVVA Flight Activity (Flightaware)

Listeners: 1 out of 1291 total

Libertador Approach: 119.300
Valencia Ground: 121.900
Valencia Tower: 121.200

TNCA Twr/Apron/FIR (Archives)
Oranjestad, Aruba

Feed Status: UP
Listen in your browser - HTML5 player(in browser, HTML5)
Click here to listen with your own player(launches your MP3 player)

TNCA 211400Z 09023KT 9999 SCT022 28/21 Q1015 NOSIG

TNCA Flight Activity (Flightaware)

Listeners: 1 out of 1291 total

Beatrix Ground (Apron): 121.600
Beatrix Tower: 120.900
Beatrix Tower (secondary): 118.000
Curacao Control: 127.100
Emergency/Guard: 121.500
Search/Rescue: 123.100

NOTES: OurAirports.com

TNCB Tower (Archives)
Kralendijk, Bonaire

Feed Status: UP
Listen in your browser - HTML5 player(in browser, HTML5)
Click here to listen with your own player(launches your MP3 player)

TNCB 211355Z 10015KT 060V140 9999 FEW018 BKN021 BKN027 28/21 Q1016

TNCB Flight Activity (Flightaware)

Listeners: 1 out of 1291 total

Bonaire Tower: 118.700

TNCC Curacao Control (Archives)
Willemstad, Curacao

Feed Status: UP
Listen in your browser - HTML5 player(in browser, HTML5)
Click here to listen with your own player(launches your MP3 player)

TNCC 211400Z AUTO 10014KT 9999 NCD 28/21 Q1016 NOSIG

TNCC Flight Activity (Flightaware)

Listeners: 2 out of 1291 total

Curacao Control: 124.100
Curacao Control: 127.100

TNCC Tower/Radar (Archives)
Willemstad, Curacao

Feed Status: UP
Listen in your browser - HTML5 player(in browser, HTML5)
Click here to listen with your own player(launches your MP3 player)

TNCC 211400Z AUTO 10014KT 9999 NCD 28/21 Q1016 NOSIG

TNCC Flight Activity (Flightaware)

Listeners: 2 out of 1291 total

Hato Radar: 119.600
Hato Tower: 118.300

TNCC Twr/Radar/Control (Archives)
Willemstad, Curacao

Feed Status: UP
Listen in your browser - HTML5 player(in browser, HTML5)
Click here to listen with your own player(launches your MP3 player)

TNCC 211400Z AUTO 10014KT 9999 NCD 28/21 Q1016 NOSIG

TNCC Flight Activity (Flightaware)

Listeners: 0 out of 1291 total

Curacao Control: 127.100
Hato Radar: 119.600
Hato Tower: 118.300

TNCE Info (Archives)
Oranjestad, Sint Eustatius

Feed Status: UP
Listen in your browser - HTML5 player(in browser, HTML5)
Click here to listen with your own player(launches your MP3 player)

TNCE 211355Z AUTO 06019KT 030V090 //// // ///////// 28/18 Q1021 RE//

TNCE Flight Activity (Flightaware)

Listeners: 0 out of 1291 total

Statia Info: 118.100

TTCP Gnd/Twr/App (Archives)
Scarborough, Trinidad and Tobago

Feed Status: UP
Listen in your browser - HTML5 player(in browser, HTML5)
Click here to listen with your own player(launches your MP3 player)

TTCP 211400Z 10012KT 9999 SCT018 30/19 Q1017 NOSIG

TTCP Flight Activity (Flightaware)

Listeners: 0 out of 1291 total

Piarco Approach: 119.000
Robinson Ground: 121.700
Robinson Tower: 118.400

TTPP Apron/Gnd/Twr (Archives)
Port of Spain, Trinidad and Tobago

Feed Status: UP
Listen in your browser - HTML5 player(in browser, HTML5)
Click here to listen with your own player(launches your MP3 player)

TTPP 211400Z 11015KT 9999 VCSH SCT018 29/22 Q1017 NOSIG RMK VCSH NE N

TTPP Flight Activity (Flightaware)

Listeners: 2 out of 1291 total

Piarco Apron: 121.750
Piarco Ground: 121.900
Piarco Tower: 118.100

TTPP Piarco Approach (Archives)
Port of Spain, Trinidad and Tobago

Feed Status: UP
Listen in your browser - HTML5 player(in browser, HTML5)
Click here to listen with your own player(launches your MP3 player)

TTPP 211400Z 11015KT 9999 VCSH SCT018 29/22 Q1017 NOSIG RMK VCSH NE N

TTPP Flight Activity (Flightaware)

Listeners: 2 out of 1291 total

Piarco Approach: 119.550
Piarco Approach: 119.000
Piarco Approach (backup): 124.000

TTPP Piarco Center (Archives)
Port of Spain, Trinidad and Tobago

Feed Status: UP
Listen in your browser - HTML5 player(in browser, HTML5)
Click here to listen with your own player(launches your MP3 player)

TTPP 211400Z 11015KT 9999 VCSH SCT018 29/22 Q1017 NOSIG RMK VCSH NE N

TTPP Flight Activity (Flightaware)

Listeners: 1 out of 1291 total

Piarco Center: 123.700
Piarco Center (Oceanic): 126.500
Piarco Center (South Sector): 125.400
Piarco Center Oceanic (Backup): 133.100